sensor_id;sensor_type;location;lat;lon;timestamp;P1;durP1;ratioP1;P2;durP2;ratioP2
17596;SDS011;8917;50.942;6.946;2023-05-10T00:01:52;4.60;;;4.20;;
17596;SDS011;8917;50.942;6.946;2023-05-10T00:04:21;5.73;;;5.13;;
17596;SDS011;8917;50.942;6.946;2023-05-10T00:06:52;5.20;;;4.70;;
17596;SDS011;8917;50.942;6.946;2023-05-10T00:09:19;5.03;;;4.63;;
17596;SDS011;8917;50.942;6.946;2023-05-10T00:11:46;5.63;;;5.13;;
17596;SDS011;8917;50.942;6.946;2023-05-10T00:14:14;6.10;;;5.00;;
17596;SDS011;8917;50.942;6.946;2023-05-10T00:16:41;6.53;;;5.93;;
17596;SDS011;8917;50.942;6.946;2023-05-10T00:19:08;6.93;;;5.90;;
17596;SDS011;8917;50.942;6.946;2023-05-10T00:21:37;7.57;;;6.87;;
17596;SDS011;8917;50.942;6.946;2023-05-10T00:24:04;7.70;;;7.00;;
17596;SDS011;8917;50.942;6.946;2023-05-10T00:26:31;7.40;;;6.70;;
17596;SDS011;8917;50.942;6.946;2023-05-10T00:28:58;6.60;;;6.00;;
17596;SDS011;8917;50.942;6.946;2023-05-10T00:31:26;7.50;;;6.80;;
17596;SDS011;8917;50.942;6.946;2023-05-10T00:33:53;7.63;;;6.93;;
17596;SDS011;8917;50.942;6.946;2023-05-10T00:36:20;7.13;;;6.50;;
17596;SDS011;8917;50.942;6.946;2023-05-10T00:38:48;7.60;;;6.80;;
17596;SDS011;8917;50.942;6.946;2023-05-10T00:41:16;7.40;;;6.70;;
17596;SDS011;8917;50.942;6.946;2023-05-10T00:43:43;8.27;;;7.40;;
17596;SDS011;8917;50.942;6.946;2023-05-10T00:46:10;7.53;;;6.73;;
17596;SDS011;8917;50.942;6.946;2023-05-10T00:48:37;9.07;;;7.30;;
17596;SDS011;8917;50.942;6.946;2023-05-10T00:51:04;7.70;;;6.97;;
17596;SDS011;8917;50.942;6.946;2023-05-10T00:53:32;7.73;;;7.03;;
17596;SDS011;8917;50.942;6.946;2023-05-10T00:56:05;7.90;;;7.17;;
17596;SDS011;8917;50.942;6.946;2023-05-10T00:58:32;9.57;;;7.17;;
17596;SDS011;8917;50.942;6.946;2023-05-10T01:00:59;7.60;;;6.90;;
17596;SDS011;8917;50.942;6.946;2023-05-10T01:03:27;7.53;;;6.73;;
17596;SDS011;8917;50.942;6.946;2023-05-10T01:05:54;7.30;;;6.60;;
17596;SDS011;8917;50.942;6.946;2023-05-10T01:08:22;8.60;;;7.43;;
17596;SDS011;8917;50.942;6.946;2023-05-10T01:10:49;8.37;;;7.20;;
17596;SDS011;8917;50.942;6.946;2023-05-10T01:13:23;8.37;;;7.07;;
17596;SDS011;8917;50.942;6.946;2023-05-10T01:15:56;8.27;;;7.47;;
17596;SDS011;8917;50.942;6.946;2023-05-10T01:18:24;8.80;;;7.93;;
17596;SDS011;8917;50.942;6.946;2023-05-10T01:21:02;8.47;;;7.67;;
17596;SDS011;8917;50.942;6.946;2023-05-10T01:23:35;8.57;;;7.73;;
17596;SDS011;8917;50.942;6.946;2023-05-10T01:26:14;8.43;;;7.53;;
17596;SDS011;8917;50.942;6.946;2023-05-10T01:29:01;9.00;;;7.80;;
17596;SDS011;8917;50.942;6.946;2023-05-10T01:31:34;10.77;;;8.20;;
17596;SDS011;8917;50.942;6.946;2023-05-10T01:34:11;9.23;;;7.60;;
17596;SDS011;8917;50.942;6.946;2023-05-10T01:36:42;8.60;;;7.63;;
17596;SDS011;8917;50.942;6.946;2023-05-10T01:39:11;8.60;;;7.70;;
17596;SDS011;8917;50.942;6.946;2023-05-10T01:41:43;9.70;;;7.83;;
17596;SDS011;8917;50.942;6.946;2023-05-10T01:44:16;8.03;;;7.27;;
17596;SDS011;8917;50.942;6.946;2023-05-10T01:46:45;9.00;;;8.10;;
17596;SDS011;8917;50.942;6.946;2023-05-10T01:49:20;8.53;;;7.63;;
17596;SDS011;8917;50.942;6.946;2023-05-10T01:51:49;8.47;;;7.63;;
17596;SDS011;8917;50.942;6.946;2023-05-10T01:54:19;9.63;;;7.73;;
17596;SDS011;8917;50.942;6.946;2023-05-10T01:56:47;8.80;;;7.07;;
17596;SDS011;8917;50.942;6.946;2023-05-10T01:59:18;7.97;;;7.07;;
17596;SDS011;8917;50.942;6.946;2023-05-10T02:01:46;8.20;;;7.30;;
17596;SDS011;8917;50.942;6.946;2023-05-10T02:04:15;7.83;;;7.07;;
17596;SDS011;8917;50.942;6.946;2023-05-10T02:06:43;7.57;;;6.60;;
17596;SDS011;8917;50.942;6.946;2023-05-10T02:09:12;9.43;;;7.83;;
17596;SDS011;8917;50.942;6.946;2023-05-10T02:11:41;7.00;;;6.30;;
17596;SDS011;8917;50.942;6.946;2023-05-10T02:14:09;6.77;;;6.17;;
17596;SDS011;8917;50.942;6.946;2023-05-10T02:16:38;7.43;;;6.50;;
17596;SDS011;8917;50.942;6.946;2023-05-10T02:19:06;7.37;;;6.67;;
17596;SDS011;8917;50.942;6.946;2023-05-10T02:21:36;6.77;;;6.03;;
17596;SDS011;8917;50.942;6.946;2023-05-10T02:24:04;7.73;;;6.67;;
17596;SDS011;8917;50.942;6.946;2023-05-10T02:26:32;7.13;;;6.43;;
17596;SDS011;8917;50.942;6.946;2023-05-10T02:29:01;7.13;;;6.40;;
17596;SDS011;8917;50.942;6.946;2023-05-10T02:31:29;7.27;;;6.17;;
17596;SDS011;8917;50.942;6.946;2023-05-10T02:33:57;6.93;;;6.27;;
17596;SDS011;8917;50.942;6.946;2023-05-10T02:36:25;7.07;;;5.83;;
17596;SDS011;8917;50.942;6.946;2023-05-10T02:38:55;6.17;;;5.57;;
17596;SDS011;8917;50.942;6.946;2023-05-10T02:41:22;5.70;;;5.17;;
17596;SDS011;8917;50.942;6.946;2023-05-10T02:43:50;7.13;;;6.07;;
17596;SDS011;8917;50.942;6.946;2023-05-10T02:46:17;6.83;;;5.80;;
17596;SDS011;8917;50.942;6.946;2023-05-10T02:48:46;6.07;;;5.03;;
17596;SDS011;8917;50.942;6.946;2023-05-10T02:51:14;5.70;;;4.70;;
17596;SDS011;8917;50.942;6.946;2023-05-10T02:53:43;5.77;;;4.87;;
17596;SDS011;8917;50.942;6.946;2023-05-10T02:56:13;4.87;;;4.47;;
17596;SDS011;8917;50.942;6.946;2023-05-10T02:58:42;4.83;;;4.43;;
17596;SDS011;8917;50.942;6.946;2023-05-10T03:01:09;5.03;;;4.53;;
17596;SDS011;8917;50.942;6.946;2023-05-10T03:03:36;4.83;;;4.33;;
17596;SDS011;8917;50.942;6.946;2023-05-10T03:06:03;4.50;;;4.10;;
17596;SDS011;8917;50.942;6.946;2023-05-10T03:08:31;5.30;;;4.23;;
17596;SDS011;8917;50.942;6.946;2023-05-10T03:11:04;4.47;;;4.07;;
17596;SDS011;8917;50.942;6.946;2023-05-10T03:13:39;5.20;;;4.67;;
17596;SDS011;8917;50.942;6.946;2023-05-10T03:16:08;4.70;;;4.23;;
17596;SDS011;8917;50.942;6.946;2023-05-10T03:18:37;5.63;;;4.10;;
17596;SDS011;8917;50.942;6.946;2023-05-10T03:21:07;4.03;;;3.67;;
17596;SDS011;8917;50.942;6.946;2023-05-10T03:23:37;4.43;;;3.90;;
17596;SDS011;8917;50.942;6.946;2023-05-10T03:26:05;4.20;;;3.80;;
17596;SDS011;8917;50.942;6.946;2023-05-10T03:28:34;4.33;;;3.93;;
17596;SDS011;8917;50.942;6.946;2023-05-10T03:31:03;4.03;;;3.67;;
17596;SDS011;8917;50.942;6.946;2023-05-10T03:33:31;4.47;;;4.07;;
17596;SDS011;8917;50.942;6.946;2023-05-10T03:35:58;4.97;;;4.00;;
17596;SDS011;8917;50.942;6.946;2023-05-10T03:38:25;5.53;;;4.47;;
17596;SDS011;8917;50.942;6.946;2023-05-10T03:40:52;5.80;;;4.40;;
17596;SDS011;8917;50.942;6.946;2023-05-10T03:43:20;4.57;;;4.10;;
17596;SDS011;8917;50.942;6.946;2023-05-10T03:45:47;5.23;;;4.30;;
17596;SDS011;8917;50.942;6.946;2023-05-10T03:48:16;5.40;;;4.90;;
17596;SDS011;8917;50.942;6.946;2023-05-10T03:50:43;6.70;;;5.37;;
17596;SDS011;8917;50.942;6.946;2023-05-10T03:53:10;6.63;;;5.93;;
17596;SDS011;8917;50.942;6.946;2023-05-10T03:55:38;6.23;;;5.60;;
17596;SDS011;8917;50.942;6.946;2023-05-10T03:58:05;6.93;;;6.17;;
17596;SDS011;8917;50.942;6.946;2023-05-10T04:00:32;7.63;;;6.70;;
17596;SDS011;8917;50.942;6.946;2023-05-10T04:03:00;6.87;;;6.17;;
17596;SDS011;8917;50.942;6.946;2023-05-10T04:05:28;7.90;;;7.10;;
17596;SDS011;8917;50.942;6.946;2023-05-10T04:07:55;8.83;;;7.33;;
17596;SDS011;8917;50.942;6.946;2023-05-10T04:10:23;7.73;;;6.93;;
17596;SDS011;8917;50.942;6.946;2023-05-10T04:12:50;9.13;;;7.83;;
17596;SDS011;8917;50.942;6.946;2023-05-10T04:15:17;9.27;;;7.70;;
17596;SDS011;8917;50.942;6.946;2023-05-10T04:17:45;10.83;;;7.67;;
17596;SDS011;8917;50.942;6.946;2023-05-10T04:20:13;8.70;;;7.90;;
17596;SDS011;8917;50.942;6.946;2023-05-10T04:22:41;9.77;;;8.13;;
17596;SDS011;8917;50.942;6.946;2023-05-10T04:25:09;8.83;;;7.93;;
17596;SDS011;8917;50.942;6.946;2023-05-10T04:27:36;9.13;;;7.93;;
17596;SDS011;8917;50.942;6.946;2023-05-10T04:30:04;8.67;;;7.47;;
17596;SDS011;8917;50.942;6.946;2023-05-10T04:32:31;10.77;;;8.70;;
17596;SDS011;8917;50.942;6.946;2023-05-10T04:34:58;9.87;;;7.93;;
17596;SDS011;8917;50.942;6.946;2023-05-10T04:37:28;11.80;;;8.20;;
17596;SDS011;8917;50.942;6.946;2023-05-10T04:39:56;11.10;;;8.27;;
17596;SDS011;8917;50.942;6.946;2023-05-10T04:42:24;10.50;;;8.50;;
17596;SDS011;8917;50.942;6.946;2023-05-10T04:44:52;11.87;;;8.57;;
17596;SDS011;8917;50.942;6.946;2023-05-10T04:47:19;9.50;;;7.60;;
17596;SDS011;8917;50.942;6.946;2023-05-10T04:49:46;8.50;;;7.63;;
17596;SDS011;8917;50.942;6.946;2023-05-10T04:52:13;11.27;;;8.67;;
17596;SDS011;8917;50.942;6.946;2023-05-10T04:54:42;12.20;;;8.53;;
17596;SDS011;8917;50.942;6.946;2023-05-10T04:57:11;11.10;;;7.87;;
17596;SDS011;8917;50.942;6.946;2023-05-10T04:59:38;9.77;;;8.20;;
17596;SDS011;8917;50.942;6.946;2023-05-10T05:02:05;11.20;;;8.83;;
17596;SDS011;8917;50.942;6.946;2023-05-10T05:04:32;10.53;;;8.53;;
17596;SDS011;8917;50.942;6.946;2023-05-10T05:06:59;11.17;;;8.83;;
17596;SDS011;8917;50.942;6.946;2023-05-10T05:09:26;10.10;;;8.00;;
17596;SDS011;8917;50.942;6.946;2023-05-10T05:11:54;11.20;;;8.60;;
17596;SDS011;8917;50.942;6.946;2023-05-10T05:14:22;10.70;;;8.30;;
17596;SDS011;8917;50.942;6.946;2023-05-10T05:16:50;11.73;;;8.37;;
17596;SDS011;8917;50.942;6.946;2023-05-10T05:19:17;11.37;;;8.60;;
17596;SDS011;8917;50.942;6.946;2023-05-10T05:21:44;12.77;;;8.33;;
17596;SDS011;8917;50.942;6.946;2023-05-10T05:24:11;15.03;;;8.50;;
17596;SDS011;8917;50.942;6.946;2023-05-10T05:26:38;11.23;;;8.40;;
17596;SDS011;8917;50.942;6.946;2023-05-10T05:29:06;12.33;;;8.83;;
17596;SDS011;8917;50.942;6.946;2023-05-10T05:31:35;13.70;;;8.60;;
17596;SDS011;8917;50.942;6.946;2023-05-10T05:34:02;11.57;;;8.73;;
17596;SDS011;8917;50.942;6.946;2023-05-10T05:36:29;11.27;;;7.90;;
17596;SDS011;8917;50.942;6.946;2023-05-10T05:38:57;10.03;;;7.70;;
17596;SDS011;8917;50.942;6.946;2023-05-10T05:41:25;12.70;;;8.20;;
17596;SDS011;8917;50.942;6.946;2023-05-10T05:43:52;11.27;;;7.93;;
17596;SDS011;8917;50.942;6.946;2023-05-10T05:46:19;11.40;;;7.40;;
17596;SDS011;8917;50.942;6.946;2023-05-10T05:48:47;11.93;;;8.30;;
17596;SDS011;8917;50.942;6.946;2023-05-10T05:51:14;10.93;;;8.57;;
17596;SDS011;8917;50.942;6.946;2023-05-10T05:53:42;11.60;;;7.97;;
17596;SDS011;8917;50.942;6.946;2023-05-10T05:56:09;11.27;;;9.00;;
17596;SDS011;8917;50.942;6.946;2023-05-10T05:58:36;10.63;;;8.57;;
17596;SDS011;8917;50.942;6.946;2023-05-10T06:01:03;12.30;;;8.73;;
17596;SDS011;8917;50.942;6.946;2023-05-10T06:03:30;17.07;;;9.83;;
17596;SDS011;8917;50.942;6.946;2023-05-10T06:05:59;12.07;;;8.53;;
17596;SDS011;8917;50.942;6.946;2023-05-10T06:08:26;15.10;;;9.80;;
17596;SDS011;8917;50.942;6.946;2023-05-10T06:10:53;11.97;;;8.30;;
17596;SDS011;8917;50.942;6.946;2023-05-10T06:13:21;12.43;;;8.70;;
17596;SDS011;8917;50.942;6.946;2023-05-10T06:15:48;14.20;;;8.17;;
17596;SDS011;8917;50.942;6.946;2023-05-10T06:18:16;9.03;;;7.03;;
17596;SDS011;8917;50.942;6.946;2023-05-10T06:20:43;12.33;;;8.03;;
17596;SDS011;8917;50.942;6.946;2023-05-10T06:23:11;14.03;;;7.73;;
17596;SDS011;8917;50.942;6.946;2023-05-10T06:25:39;11.27;;;8.00;;
17596;SDS011;8917;50.942;6.946;2023-05-10T06:28:06;13.10;;;8.40;;
17596;SDS011;8917;50.942;6.946;2023-05-10T06:30:33;11.27;;;8.33;;
17596;SDS011;8917;50.942;6.946;2023-05-10T06:33:00;12.77;;;8.87;;
17596;SDS011;8917;50.942;6.946;2023-05-10T06:35:27;11.23;;;8.50;;
17596;SDS011;8917;50.942;6.946;2023-05-10T06:37:54;12.30;;;7.93;;
17596;SDS011;8917;50.942;6.946;2023-05-10T06:40:23;13.60;;;8.43;;
17596;SDS011;8917;50.942;6.946;2023-05-10T06:42:50;11.43;;;8.10;;
17596;SDS011;8917;50.942;6.946;2023-05-10T06:45:17;12.13;;;8.03;;
17596;SDS011;8917;50.942;6.946;2023-05-10T06:47:45;9.73;;;8.43;;
17596;SDS011;8917;50.942;6.946;2023-05-10T06:50:12;12.07;;;8.63;;
17596;SDS011;8917;50.942;6.946;2023-05-10T06:52:39;9.60;;;7.30;;
17596;SDS011;8917;50.942;6.946;2023-05-10T06:55:06;14.10;;;9.47;;
17596;SDS011;8917;50.942;6.946;2023-05-10T06:57:35;12.97;;;9.70;;
17596;SDS011;8917;50.942;6.946;2023-05-10T07:00:03;11.40;;;8.60;;
17596;SDS011;8917;50.942;6.946;2023-05-10T07:02:30;13.53;;;8.67;;
17596;SDS011;8917;50.942;6.946;2023-05-10T07:04:58;14.13;;;9.00;;
17596;SDS011;8917;50.942;6.946;2023-05-10T07:07:25;13.10;;;8.77;;
17596;SDS011;8917;50.942;6.946;2023-05-10T07:09:52;15.00;;;9.97;;
17596;SDS011;8917;50.942;6.946;2023-05-10T07:12:19;15.73;;;9.93;;
17596;SDS011;8917;50.942;6.946;2023-05-10T07:14:48;12.70;;;9.37;;
17596;SDS011;8917;50.942;6.946;2023-05-10T07:17:15;12.57;;;9.20;;
17596;SDS011;8917;50.942;6.946;2023-05-10T07:19:42;14.13;;;9.00;;
17596;SDS011;8917;50.942;6.946;2023-05-10T07:22:09;14.03;;;9.80;;
17596;SDS011;8917;50.942;6.946;2023-05-10T07:24:37;11.53;;;9.00;;
17596;SDS011;8917;50.942;6.946;2023-05-10T07:27:04;11.17;;;8.90;;
17596;SDS011;8917;50.942;6.946;2023-05-10T07:29:32;13.17;;;9.30;;
17596;SDS011;8917;50.942;6.946;2023-05-10T07:32:00;16.43;;;10.10;;
17596;SDS011;8917;50.942;6.946;2023-05-10T07:34:27;11.47;;;8.87;;
17596;SDS011;8917;50.942;6.946;2023-05-10T07:36:58;13.70;;;9.13;;
17596;SDS011;8917;50.942;6.946;2023-05-10T07:39:25;12.43;;;9.50;;
17596;SDS011;8917;50.942;6.946;2023-05-10T07:41:53;14.00;;;9.67;;
17596;SDS011;8917;50.942;6.946;2023-05-10T07:44:20;13.20;;;9.40;;
17596;SDS011;8917;50.942;6.946;2023-05-10T07:46:47;13.70;;;9.03;;
17596;SDS011;8917;50.942;6.946;2023-05-10T07:49:16;13.37;;;9.17;;
17596;SDS011;8917;50.942;6.946;2023-05-10T07:51:43;15.93;;;9.03;;
17596;SDS011;8917;50.942;6.946;2023-05-10T07:54:10;12.80;;;9.37;;
17596;SDS011;8917;50.942;6.946;2023-05-10T07:56:37;11.60;;;8.97;;
17596;SDS011;8917;50.942;6.946;2023-05-10T07:59:09;11.83;;;9.40;;
17596;SDS011;8917;50.942;6.946;2023-05-10T08:01:36;12.40;;;9.13;;
17596;SDS011;8917;50.942;6.946;2023-05-10T08:04:03;13.20;;;10.27;;
17596;SDS011;8917;50.942;6.946;2023-05-10T08:06:32;11.33;;;8.73;;
17596;SDS011;8917;50.942;6.946;2023-05-10T08:09:00;13.03;;;8.57;;
17596;SDS011;8917;50.942;6.946;2023-05-10T08:11:27;10.20;;;7.90;;
17596;SDS011;8917;50.942;6.946;2023-05-10T08:13:54;12.03;;;8.63;;
17596;SDS011;8917;50.942;6.946;2023-05-10T08:16:21;12.67;;;9.10;;
17596;SDS011;8917;50.942;6.946;2023-05-10T08:18:48;9.03;;;7.50;;
17596;SDS011;8917;50.942;6.946;2023-05-10T08:21:16;12.23;;;8.27;;
17596;SDS011;8917;50.942;6.946;2023-05-10T08:23:44;11.73;;;8.43;;
17596;SDS011;8917;50.942;6.946;2023-05-10T08:26:11;11.63;;;7.30;;
17596;SDS011;8917;50.942;6.946;2023-05-10T08:28:38;11.03;;;7.50;;
17596;SDS011;8917;50.942;6.946;2023-05-10T08:31:06;13.87;;;7.63;;
17596;SDS011;8917;50.942;6.946;2023-05-10T08:33:33;13.30;;;8.53;;
17596;SDS011;8917;50.942;6.946;2023-05-10T08:36:00;11.43;;;8.20;;
17596;SDS011;8917;50.942;6.946;2023-05-10T08:38:27;10.43;;;7.30;;
17596;SDS011;8917;50.942;6.946;2023-05-10T08:40:56;12.67;;;7.60;;
17596;SDS011;8917;50.942;6.946;2023-05-10T08:43:25;9.00;;;6.90;;
17596;SDS011;8917;50.942;6.946;2023-05-10T08:45:53;11.60;;;7.30;;
17596;SDS011;8917;50.942;6.946;2023-05-10T08:48:21;9.40;;;7.30;;
17596;SDS011;8917;50.942;6.946;2023-05-10T08:50:49;8.83;;;6.87;;
17596;SDS011;8917;50.942;6.946;2023-05-10T08:53:19;9.50;;;6.97;;
17596;SDS011;8917;50.942;6.946;2023-05-10T08:55:47;6.80;;;5.60;;
17596;SDS011;8917;50.942;6.946;2023-05-10T08:58:16;8.73;;;6.00;;
17596;SDS011;8917;50.942;6.946;2023-05-10T09:00:44;9.27;;;6.87;;
17596;SDS011;8917;50.942;6.946;2023-05-10T09:03:12;10.23;;;7.17;;
17596;SDS011;8917;50.942;6.946;2023-05-10T09:05:39;11.00;;;7.63;;
17596;SDS011;8917;50.942;6.946;2023-05-10T09:08:07;9.13;;;7.37;;
17596;SDS011;8917;50.942;6.946;2023-05-10T09:10:35;10.03;;;6.67;;
17596;SDS011;8917;50.942;6.946;2023-05-10T09:13:03;9.33;;;7.17;;
17596;SDS011;8917;50.942;6.946;2023-05-10T09:15:32;11.20;;;6.83;;
17596;SDS011;8917;50.942;6.946;2023-05-10T09:17:59;12.97;;;7.27;;
17596;SDS011;8917;50.942;6.946;2023-05-10T09:20:27;11.27;;;6.90;;
17596;SDS011;8917;50.942;6.946;2023-05-10T09:22:56;9.83;;;6.33;;
17596;SDS011;8917;50.942;6.946;2023-05-10T09:25:23;11.13;;;6.80;;
17596;SDS011;8917;50.942;6.946;2023-05-10T09:27:50;8.53;;;7.07;;
17596;SDS011;8917;50.942;6.946;2023-05-10T09:30:22;8.40;;;6.63;;
17596;SDS011;8917;50.942;6.946;2023-05-10T09:32:52;9.77;;;7.47;;
17596;SDS011;8917;50.942;6.946;2023-05-10T09:35:20;9.13;;;6.97;;
17596;SDS011;8917;50.942;6.946;2023-05-10T09:37:48;14.97;;;9.47;;
17596;SDS011;8917;50.942;6.946;2023-05-10T09:40:17;15.87;;;9.60;;
17596;SDS011;8917;50.942;6.946;2023-05-10T09:42:50;17.40;;;9.63;;
17596;SDS011;8917;50.942;6.946;2023-05-10T09:45:17;11.40;;;8.40;;
17596;SDS011;8917;50.942;6.946;2023-05-10T09:47:45;12.53;;;8.37;;
17596;SDS011;8917;50.942;6.946;2023-05-10T09:50:13;12.43;;;8.33;;
17596;SDS011;8917;50.942;6.946;2023-05-10T09:52:48;13.60;;;9.13;;
17596;SDS011;8917;50.942;6.946;2023-05-10T09:55:16;11.63;;;8.37;;
17596;SDS011;8917;50.942;6.946;2023-05-10T09:57:43;14.20;;;8.63;;
17596;SDS011;8917;50.942;6.946;2023-05-10T10:00:11;11.73;;;7.87;;
17596;SDS011;8917;50.942;6.946;2023-05-10T10:05:11;12.23;;;9.20;;
17596;SDS011;8917;50.942;6.946;2023-05-10T10:07:40;12.33;;;9.77;;
17596;SDS011;8917;50.942;6.946;2023-05-10T10:10:08;13.07;;;9.47;;
17596;SDS011;8917;50.942;6.946;2023-05-10T10:12:38;12.37;;;9.17;;
17596;SDS011;8917;50.942;6.946;2023-05-10T10:15:05;10.67;;;8.70;;
17596;SDS011;8917;50.942;6.946;2023-05-10T10:17:33;11.90;;;8.50;;
17596;SDS011;8917;50.942;6.946;2023-05-10T10:20:02;12.23;;;9.00;;
17596;SDS011;8917;50.942;6.946;2023-05-10T10:22:29;10.63;;;7.90;;
17596;SDS011;8917;50.942;6.946;2023-05-10T10:24:58;9.63;;;7.40;;
17596;SDS011;8917;50.942;6.946;2023-05-10T10:27:26;11.47;;;7.90;;
17596;SDS011;8917;50.942;6.946;2023-05-10T10:29:59;9.00;;;7.57;;
17596;SDS011;8917;50.942;6.946;2023-05-10T10:32:30;11.67;;;7.43;;
17596;SDS011;8917;50.942;6.946;2023-05-10T10:35:00;11.87;;;7.33;;
17596;SDS011;8917;50.942;6.946;2023-05-10T10:37:40;9.97;;;7.67;;
17596;SDS011;8917;50.942;6.946;2023-05-10T10:40:25;11.40;;;7.73;;
17596;SDS011;8917;50.942;6.946;2023-05-10T10:42:53;10.30;;;6.67;;
17596;SDS011;8917;50.942;6.946;2023-05-10T10:45:20;9.73;;;7.00;;
17596;SDS011;8917;50.942;6.946;2023-05-10T10:47:48;6.97;;;5.77;;
17596;SDS011;8917;50.942;6.946;2023-05-10T10:50:16;9.57;;;7.47;;
17596;SDS011;8917;50.942;6.946;2023-05-10T10:52:44;9.70;;;6.57;;
17596;SDS011;8917;50.942;6.946;2023-05-10T10:55:11;11.13;;;8.03;;
17596;SDS011;8917;50.942;6.946;2023-05-10T10:57:47;13.47;;;7.17;;
17596;SDS011;8917;50.942;6.946;2023-05-10T11:00:21;10.90;;;7.60;;
17596;SDS011;8917;50.942;6.946;2023-05-10T11:02:50;11.40;;;7.40;;
17596;SDS011;8917;50.942;6.946;2023-05-10T11:05:24;11.23;;;7.33;;
17596;SDS011;8917;50.942;6.946;2023-05-10T11:07:52;10.27;;;7.53;;
17596;SDS011;8917;50.942;6.946;2023-05-10T11:10:20;10.23;;;7.00;;
17596;SDS011;8917;50.942;6.946;2023-05-10T11:12:55;9.10;;;6.00;;
17596;SDS011;8917;50.942;6.946;2023-05-10T11:15:29;6.93;;;5.67;;
17596;SDS011;8917;50.942;6.946;2023-05-10T11:17:56;8.60;;;7.30;;
17596;SDS011;8917;50.942;6.946;2023-05-10T11:20:23;7.63;;;5.40;;
17596;SDS011;8917;50.942;6.946;2023-05-10T11:22:58;6.80;;;4.80;;
17596;SDS011;8917;50.942;6.946;2023-05-10T11:25:40;7.50;;;5.53;;
17596;SDS011;8917;50.942;6.946;2023-05-10T11:28:09;5.40;;;4.27;;
17596;SDS011;8917;50.942;6.946;2023-05-10T11:30:37;6.00;;;5.13;;
17596;SDS011;8917;50.942;6.946;2023-05-10T11:33:04;5.60;;;4.67;;
17596;SDS011;8917;50.942;6.946;2023-05-10T11:35:36;7.33;;;5.20;;
17596;SDS011;8917;50.942;6.946;2023-05-10T11:38:05;4.93;;;4.23;;
17596;SDS011;8917;50.942;6.946;2023-05-10T11:40:32;6.67;;;5.03;;
17596;SDS011;8917;50.942;6.946;2023-05-10T11:42:59;4.77;;;4.20;;
17596;SDS011;8917;50.942;6.946;2023-05-10T11:45:28;8.10;;;4.00;;
17596;SDS011;8917;50.942;6.946;2023-05-10T11:47:56;6.40;;;4.73;;
17596;SDS011;8917;50.942;6.946;2023-05-10T11:50:23;4.67;;;3.73;;
17596;SDS011;8917;50.942;6.946;2023-05-10T11:52:52;4.83;;;3.93;;
17596;SDS011;8917;50.942;6.946;2023-05-10T11:55:19;4.80;;;3.50;;
17596;SDS011;8917;50.942;6.946;2023-05-10T11:57:46;3.87;;;3.23;;
17596;SDS011;8917;50.942;6.946;2023-05-10T12:00:14;4.77;;;3.23;;
17596;SDS011;8917;50.942;6.946;2023-05-10T12:02:43;3.30;;;3.00;;
17596;SDS011;8917;50.942;6.946;2023-05-10T12:05:10;3.57;;;2.93;;
17596;SDS011;8917;50.942;6.946;2023-05-10T12:07:37;3.27;;;2.83;;
17596;SDS011;8917;50.942;6.946;2023-05-10T12:10:05;3.10;;;2.80;;
17596;SDS011;8917;50.942;6.946;2023-05-10T12:12:37;3.20;;;3.00;;
17596;SDS011;8917;50.942;6.946;2023-05-10T12:15:05;4.07;;;3.10;;
17596;SDS011;8917;50.942;6.946;2023-05-10T12:17:32;3.20;;;2.80;;
17596;SDS011;8917;50.942;6.946;2023-05-10T12:20:13;3.53;;;3.23;;
17596;SDS011;8917;50.942;6.946;2023-05-10T12:22:43;2.60;;;2.40;;
17596;SDS011;8917;50.942;6.946;2023-05-10T12:25:10;3.30;;;2.50;;
17596;SDS011;8917;50.942;6.946;2023-05-10T12:27:37;3.00;;;2.70;;
17596;SDS011;8917;50.942;6.946;2023-05-10T12:30:05;3.10;;;2.90;;
17596;SDS011;8917;50.942;6.946;2023-05-10T12:32:39;3.57;;;3.27;;
17596;SDS011;8917;50.942;6.946;2023-05-10T12:35:07;3.33;;;3.03;;
17596;SDS011;8917;50.942;6.946;2023-05-10T12:37:36;3.10;;;2.80;;
17596;SDS011;8917;50.942;6.946;2023-05-10T12:40:05;5.77;;;2.53;;
17596;SDS011;8917;50.942;6.946;2023-05-10T12:42:34;2.80;;;2.60;;
17596;SDS011;8917;50.942;6.946;2023-05-10T12:45:01;3.17;;;2.80;;
17596;SDS011;8917;50.942;6.946;2023-05-10T12:47:29;2.70;;;2.50;;
17596;SDS011;8917;50.942;6.946;2023-05-10T12:49:56;3.13;;;2.40;;
17596;SDS011;8917;50.942;6.946;2023-05-10T12:52:23;2.43;;;2.10;;
17596;SDS011;8917;50.942;6.946;2023-05-10T12:54:52;2.70;;;2.27;;
17596;SDS011;8917;50.942;6.946;2023-05-10T12:57:19;2.17;;;2.00;;
17596;SDS011;8917;50.942;6.946;2023-05-10T12:59:47;4.07;;;2.30;;
17596;SDS011;8917;50.942;6.946;2023-05-10T13:02:14;2.83;;;2.20;;
17596;SDS011;8917;50.942;6.946;2023-05-10T13:04:43;2.67;;;2.30;;
17596;SDS011;8917;50.942;6.946;2023-05-10T13:07:11;2.07;;;1.87;;
17596;SDS011;8917;50.942;6.946;2023-05-10T13:09:38;3.03;;;2.23;;
17596;SDS011;8917;50.942;6.946;2023-05-10T13:12:07;2.10;;;1.90;;
17596;SDS011;8917;50.942;6.946;2023-05-10T13:14:34;2.83;;;1.90;;
17596;SDS011;8917;50.942;6.946;2023-05-10T13:17:01;2.40;;;2.20;;
17596;SDS011;8917;50.942;6.946;2023-05-10T13:19:28;2.33;;;1.73;;
17596;SDS011;8917;50.942;6.946;2023-05-10T13:21:56;3.50;;;2.00;;
17596;SDS011;8917;50.942;6.946;2023-05-10T13:24:23;3.57;;;2.10;;
17596;SDS011;8917;50.942;6.946;2023-05-10T13:26:50;2.83;;;2.03;;
17596;SDS011;8917;50.942;6.946;2023-05-10T13:29:19;2.60;;;2.40;;
17596;SDS011;8917;50.942;6.946;2023-05-10T13:31:47;2.30;;;2.10;;
17596;SDS011;8917;50.942;6.946;2023-05-10T13:34:14;2.00;;;1.80;;
17596;SDS011;8917;50.942;6.946;2023-05-10T13:36:45;3.63;;;1.60;;
17596;SDS011;8917;50.942;6.946;2023-05-10T13:39:12;1.90;;;1.60;;
17596;SDS011;8917;50.942;6.946;2023-05-10T13:41:39;1.77;;;1.67;;
17596;SDS011;8917;50.942;6.946;2023-05-10T13:44:06;2.57;;;2.00;;
17596;SDS011;8917;50.942;6.946;2023-05-10T13:46:35;1.90;;;1.80;;
17596;SDS011;8917;50.942;6.946;2023-05-10T13:49:03;2.10;;;1.90;;
17596;SDS011;8917;50.942;6.946;2023-05-10T13:51:30;3.17;;;2.37;;
17596;SDS011;8917;50.942;6.946;2023-05-10T13:53:58;2.90;;;2.20;;
17596;SDS011;8917;50.942;6.946;2023-05-10T13:56:25;2.60;;;1.60;;
17596;SDS011;8917;50.942;6.946;2023-05-10T13:58:52;3.57;;;1.67;;
17596;SDS011;8917;50.942;6.946;2023-05-10T14:01:19;1.60;;;1.50;;
17596;SDS011;8917;50.942;6.946;2023-05-10T14:03:48;2.50;;;1.50;;
17596;SDS011;8917;50.942;6.946;2023-05-10T14:06:15;5.23;;;1.83;;
17596;SDS011;8917;50.942;6.946;2023-05-10T14:08:42;1.53;;;1.40;;
17596;SDS011;8917;50.942;6.946;2023-05-10T14:11:09;2.67;;;1.70;;
17596;SDS011;8917;50.942;6.946;2023-05-10T14:13:36;1.63;;;1.53;;
17596;SDS011;8917;50.942;6.946;2023-05-10T14:16:04;1.70;;;1.60;;
17596;SDS011;8917;50.942;6.946;2023-05-10T14:18:31;1.67;;;1.57;;
17596;SDS011;8917;50.942;6.946;2023-05-10T14:21:01;4.00;;;1.60;;
17596;SDS011;8917;50.942;6.946;2023-05-10T14:23:28;2.53;;;1.50;;
17596;SDS011;8917;50.942;6.946;2023-05-10T14:25:55;3.50;;;1.40;;
17596;SDS011;8917;50.942;6.946;2023-05-10T14:28:22;1.27;;;1.17;;
17596;SDS011;8917;50.942;6.946;2023-05-10T14:30:50;2.47;;;1.20;;
17596;SDS011;8917;50.942;6.946;2023-05-10T14:33:17;3.93;;;1.30;;
17596;SDS011;8917;50.942;6.946;2023-05-10T14:35:45;2.87;;;1.53;;
17596;SDS011;8917;50.942;6.946;2023-05-10T14:38:14;1.97;;;1.50;;
17596;SDS011;8917;50.942;6.946;2023-05-10T14:40:41;3.40;;;1.50;;
17596;SDS011;8917;50.942;6.946;2023-05-10T14:43:09;1.40;;;1.30;;
17596;SDS011;8917;50.942;6.946;2023-05-10T14:45:36;1.37;;;1.20;;
17596;SDS011;8917;50.942;6.946;2023-05-10T14:48:03;3.77;;;2.23;;
17596;SDS011;8917;50.942;6.946;2023-05-10T14:50:30;2.03;;;1.93;;
17596;SDS011;8917;50.942;6.946;2023-05-10T14:52:58;2.97;;;1.73;;
17596;SDS011;8917;50.942;6.946;2023-05-10T14:55:26;1.80;;;1.70;;
17596;SDS011;8917;50.942;6.946;2023-05-10T14:57:55;2.10;;;1.90;;
17596;SDS011;8917;50.942;6.946;2023-05-10T15:00:23;2.00;;;1.50;;
17596;SDS011;8917;50.942;6.946;2023-05-10T15:02:50;2.70;;;1.60;;
17596;SDS011;8917;50.942;6.946;2023-05-10T15:05:17;3.70;;;1.57;;